sensor_id;sensor_type;location;lat;lon;timestamp;P1;durP1;ratioP1;P2;durP2;ratioP2
75408;SDS011;63979;55.644;37.734;2023-12-20T00:04:25;1.40;;;0.90;;
75408;SDS011;63979;55.644;37.734;2023-12-20T00:09:25;1.20;;;0.98;;
75408;SDS011;63979;55.644;37.734;2023-12-20T00:14:26;1.00;;;0.82;;
75408;SDS011;63979;55.644;37.734;2023-12-20T00:19:27;2.53;;;0.85;;
75408;SDS011;63979;55.644;37.734;2023-12-20T00:24:28;1.52;;;1.00;;
75408;SDS011;63979;55.644;37.734;2023-12-20T00:29:28;3.35;;;1.30;;
75408;SDS011;63979;55.644;37.734;2023-12-20T00:34:29;1.45;;;0.93;;
75408;SDS011;63979;55.644;37.734;2023-12-20T00:39:30;1.42;;;0.85;;
75408;SDS011;63979;55.644;37.734;2023-12-20T00:44:31;1.35;;;0.85;;
75408;SDS011;63979;55.644;37.734;2023-12-20T00:49:31;1.42;;;1.10;;
75408;SDS011;63979;55.644;37.734;2023-12-20T00:54:32;1.10;;;0.93;;
75408;SDS011;63979;55.644;37.734;2023-12-20T00:59:33;1.90;;;1.17;;
75408;SDS011;63979;55.644;37.734;2023-12-20T01:04:34;2.20;;;1.48;;
75408;SDS011;63979;55.644;37.734;2023-12-20T01:09:35;2.55;;;1.35;;
75408;SDS011;63979;55.644;37.734;2023-12-20T01:14:36;2.00;;;1.42;;
75408;SDS011;63979;55.644;37.734;2023-12-20T01:19:36;1.80;;;1.15;;
75408;SDS011;63979;55.644;37.734;2023-12-20T01:24:37;2.45;;;1.40;;
75408;SDS011;63979;55.644;37.734;2023-12-20T01:29:38;1.25;;;1.02;;
75408;SDS011;63979;55.644;37.734;2023-12-20T01:34:39;2.70;;;1.63;;
75408;SDS011;63979;55.644;37.734;2023-12-20T01:39:40;2.33;;;1.35;;
75408;SDS011;63979;55.644;37.734;2023-12-20T01:44:40;3.33;;;1.17;;
75408;SDS011;63979;55.644;37.734;2023-12-20T01:49:41;2.40;;;1.45;;
75408;SDS011;63979;55.644;37.734;2023-12-20T01:54:42;1.50;;;1.10;;
75408;SDS011;63979;55.644;37.734;2023-12-20T01:59:43;1.48;;;0.85;;
75408;SDS011;63979;55.644;37.734;2023-12-20T02:04:45;1.90;;;1.10;;
75408;SDS011;63979;55.644;37.734;2023-12-20T02:09:46;3.53;;;0.73;;
75408;SDS011;63979;55.644;37.734;2023-12-20T02:14:47;2.20;;;0.65;;
75408;SDS011;63979;55.644;37.734;2023-12-20T02:19:49;1.08;;;0.70;;
75408;SDS011;63979;55.644;37.734;2023-12-20T02:24:50;1.40;;;0.80;;
75408;SDS011;63979;55.644;37.734;2023-12-20T02:29:51;1.30;;;0.70;;
75408;SDS011;63979;55.644;37.734;2023-12-20T02:34:51;0.95;;;0.60;;
75408;SDS011;63979;55.644;37.734;2023-12-20T02:39:52;0.90;;;0.55;;
75408;SDS011;63979;55.644;37.734;2023-12-20T02:44:53;1.48;;;0.40;;
75408;SDS011;63979;55.644;37.734;2023-12-20T02:49:54;0.25;;;0.15;;
75408;SDS011;63979;55.644;37.734;2023-12-20T02:54:54;1.25;;;0.70;;
75408;SDS011;63979;55.644;37.734;2023-12-20T02:59:55;0.30;;;0.30;;
75408;SDS011;63979;55.644;37.734;2023-12-20T03:04:56;1.52;;;0.75;;
75408;SDS011;63979;55.644;37.734;2023-12-20T03:09:57;1.25;;;0.68;;
75408;SDS011;63979;55.644;37.734;2023-12-20T03:14:57;2.67;;;0.93;;
75408;SDS011;63979;55.644;37.734;2023-12-20T03:19:58;1.27;;;1.02;;
75408;SDS011;63979;55.644;37.734;2023-12-20T03:24:59;0.95;;;0.93;;
75408;SDS011;63979;55.644;37.734;2023-12-20T03:30:00;1.30;;;1.20;;
75408;SDS011;63979;55.644;37.734;2023-12-20T03:35:00;1.48;;;0.70;;
75408;SDS011;63979;55.644;37.734;2023-12-20T03:40:02;1.55;;;1.02;;
75408;SDS011;63979;55.644;37.734;2023-12-20T03:45:04;1.02;;;0.90;;
75408;SDS011;63979;55.644;37.734;2023-12-20T03:50:06;2.30;;;0.80;;
75408;SDS011;63979;55.644;37.734;2023-12-20T03:55:07;2.40;;;1.67;;
75408;SDS011;63979;55.644;37.734;2023-12-20T04:00:08;5.13;;;1.30;;
75408;SDS011;63979;55.644;37.734;2023-12-20T04:05:10;0.90;;;0.82;;
75408;SDS011;63979;55.644;37.734;2023-12-20T04:10:12;2.20;;;1.92;;
75408;SDS011;63979;55.644;37.734;2023-12-20T04:15:12;3.10;;;2.10;;
75408;SDS011;63979;55.644;37.734;2023-12-20T04:20:13;1.23;;;1.08;;
75408;SDS011;63979;55.644;37.734;2023-12-20T04:25:14;2.25;;;1.55;;
75408;SDS011;63979;55.644;37.734;2023-12-20T04:30:15;3.47;;;1.77;;
75408;SDS011;63979;55.644;37.734;2023-12-20T04:35:16;2.75;;;2.28;;
75408;SDS011;63979;55.644;37.734;2023-12-20T04:40:17;2.08;;;1.17;;
75408;SDS011;63979;55.644;37.734;2023-12-20T04:45:17;7.30;;;2.10;;
75408;SDS011;63979;55.644;37.734;2023-12-20T04:50:19;3.05;;;1.88;;
75408;SDS011;63979;55.644;37.734;2023-12-20T04:55:21;2.92;;;2.00;;
75408;SDS011;63979;55.644;37.734;2023-12-20T05:00:22;3.53;;;2.17;;
75408;SDS011;63979;55.644;37.734;2023-12-20T05:05:23;2.92;;;1.30;;
75408;SDS011;63979;55.644;37.734;2023-12-20T05:10:24;2.38;;;1.02;;
75408;SDS011;63979;55.644;37.734;2023-12-20T05:15:24;2.33;;;1.00;;
75408;SDS011;63979;55.644;37.734;2023-12-20T05:20:25;1.05;;;0.82;;
75408;SDS011;63979;55.644;37.734;2023-12-20T05:25:26;2.05;;;0.88;;
75408;SDS011;63979;55.644;37.734;2023-12-20T05:30:27;1.73;;;0.70;;
75408;SDS011;63979;55.644;37.734;2023-12-20T05:35:28;3.90;;;1.88;;
75408;SDS011;63979;55.644;37.734;2023-12-20T05:40:29;2.95;;;1.20;;
75408;SDS011;63979;55.644;37.734;2023-12-20T05:45:30;2.65;;;1.85;;
75408;SDS011;63979;55.644;37.734;2023-12-20T05:50:30;2.95;;;1.60;;
75408;SDS011;63979;55.644;37.734;2023-12-20T05:55:31;5.40;;;2.25;;
75408;SDS011;63979;55.644;37.734;2023-12-20T06:00:32;3.17;;;1.45;;
75408;SDS011;63979;55.644;37.734;2023-12-20T06:05:33;3.78;;;1.90;;
75408;SDS011;63979;55.644;37.734;2023-12-20T06:10:34;3.08;;;2.05;;
75408;SDS011;63979;55.644;37.734;2023-12-20T06:15:34;2.60;;;1.63;;
75408;SDS011;63979;55.644;37.734;2023-12-20T06:20:35;3.50;;;1.83;;
75408;SDS011;63979;55.644;37.734;2023-12-20T06:25:36;2.47;;;1.38;;
75408;SDS011;63979;55.644;37.734;2023-12-20T06:30:37;2.63;;;1.20;;
75408;SDS011;63979;55.644;37.734;2023-12-20T06:35:38;1.85;;;1.30;;
75408;SDS011;63979;55.644;37.734;2023-12-20T06:40:38;4.13;;;1.52;;
75408;SDS011;63979;55.644;37.734;2023-12-20T06:45:39;3.92;;;2.22;;
75408;SDS011;63979;55.644;37.734;2023-12-20T06:50:41;4.25;;;1.75;;
75408;SDS011;63979;55.644;37.734;2023-12-20T06:55:42;4.15;;;1.40;;
75408;SDS011;63979;55.644;37.734;2023-12-20T07:00:42;1.70;;;1.05;;
75408;SDS011;63979;55.644;37.734;2023-12-20T07:05:43;4.90;;;2.03;;
75408;SDS011;63979;55.644;37.734;2023-12-20T07:10:44;3.50;;;1.60;;
75408;SDS011;63979;55.644;37.734;2023-12-20T07:15:45;2.13;;;1.30;;
75408;SDS011;63979;55.644;37.734;2023-12-20T07:20:46;3.30;;;1.92;;
75408;SDS011;63979;55.644;37.734;2023-12-20T07:25:47;3.40;;;1.95;;
75408;SDS011;63979;55.644;37.734;2023-12-20T07:30:48;2.53;;;1.30;;
75408;SDS011;63979;55.644;37.734;2023-12-20T07:35:49;4.70;;;1.48;;
75408;SDS011;63979;55.644;37.734;2023-12-20T07:40:52;1.40;;;1.02;;
75408;SDS011;63979;55.644;37.734;2023-12-20T07:45:52;2.13;;;1.50;;
75408;SDS011;63979;55.644;37.734;2023-12-20T07:50:53;2.63;;;1.25;;
75408;SDS011;63979;55.644;37.734;2023-12-20T07:55:54;1.75;;;1.38;;
75408;SDS011;63979;55.644;37.734;2023-12-20T08:00:55;1.80;;;1.00;;
75408;SDS011;63979;55.644;37.734;2023-12-20T08:05:56;2.67;;;1.40;;
75408;SDS011;63979;55.644;37.734;2023-12-20T08:16:00;0.80;;;0.80;;
75408;SDS011;63979;55.644;37.734;2023-12-20T08:21:03;1.75;;;1.00;;
75408;SDS011;63979;55.644;37.734;2023-12-20T08:26:05;2.80;;;1.25;;
75408;SDS011;63979;55.644;37.734;2023-12-20T08:31:06;1.70;;;1.02;;
75408;SDS011;63979;55.644;37.734;2023-12-20T08:36:15;1.10;;;0.88;;
75408;SDS011;63979;55.644;37.734;2023-12-20T08:41:18;1.15;;;1.02;;
75408;SDS011;63979;55.644;37.734;2023-12-20T08:46:19;1.67;;;1.38;;
75408;SDS011;63979;55.644;37.734;2023-12-20T08:51:19;3.03;;;1.50;;
75408;SDS011;63979;55.644;37.734;2023-12-20T08:56:21;1.90;;;1.17;;
75408;SDS011;63979;55.644;37.734;2023-12-20T09:01:22;2.55;;;1.77;;
75408;SDS011;63979;55.644;37.734;2023-12-20T09:06:23;2.58;;;1.00;;
75408;SDS011;63979;55.644;37.734;2023-12-20T09:11:25;2.13;;;1.30;;
75408;SDS011;63979;55.644;37.734;2023-12-20T09:16:25;3.55;;;1.50;;
75408;SDS011;63979;55.644;37.734;2023-12-20T09:21:26;2.78;;;1.63;;
75408;SDS011;63979;55.644;37.734;2023-12-20T09:26:27;2.08;;;1.48;;
75408;SDS011;63979;55.644;37.734;2023-12-20T09:31:28;3.05;;;1.55;;
75408;SDS011;63979;55.644;37.734;2023-12-20T09:36:29;1.95;;;1.35;;
75408;SDS011;63979;55.644;37.734;2023-12-20T09:41:31;2.08;;;1.58;;
75408;SDS011;63979;55.644;37.734;2023-12-20T09:46:43;2.63;;;1.33;;
75408;SDS011;63979;55.644;37.734;2023-12-20T09:51:45;3.30;;;1.83;;
75408;SDS011;63979;55.644;37.734;2023-12-20T09:56:47;4.38;;;1.20;;
75408;SDS011;63979;55.644;37.734;2023-12-20T10:01:48;1.58;;;1.15;;
75408;SDS011;63979;55.644;37.734;2023-12-20T10:11:54;2.05;;;1.23;;
75408;SDS011;63979;55.644;37.734;2023-12-20T10:17:01;0.85;;;0.77;;
75408;SDS011;63979;55.644;37.734;2023-12-20T10:22:03;1.30;;;0.98;;
75408;SDS011;63979;55.644;37.734;2023-12-20T10:27:05;1.98;;;0.80;;
75408;SDS011;63979;55.644;37.734;2023-12-20T10:32:23;1.48;;;1.30;;
75408;SDS011;63979;55.644;37.734;2023-12-20T10:37:25;1.55;;;0.82;;
75408;SDS011;63979;55.644;37.734;2023-12-20T10:42:26;1.33;;;0.77;;
75408;SDS011;63979;55.644;37.734;2023-12-20T10:47:27;1.50;;;0.88;;
75408;SDS011;63979;55.644;37.734;2023-12-20T10:52:31;0.68;;;0.68;;
75408;SDS011;63979;55.644;37.734;2023-12-20T10:57:35;0.93;;;0.65;;
75408;SDS011;63979;55.644;37.734;2023-12-20T11:02:39;3.50;;;1.02;;
75408;SDS011;63979;55.644;37.734;2023-12-20T11:07:43;1.75;;;0.80;;
75408;SDS011;63979;55.644;37.734;2023-12-20T11:12:57;1.60;;;0.90;;
75408;SDS011;63979;55.644;37.734;2023-12-20T11:18:09;1.95;;;1.13;;
75408;SDS011;63979;55.644;37.734;2023-12-20T11:23:11;2.25;;;1.38;;
75408;SDS011;63979;55.644;37.734;2023-12-20T11:28:12;1.30;;;0.90;;
75408;SDS011;63979;55.644;37.734;2023-12-20T11:33:14;1.35;;;1.25;;
75408;SDS011;63979;55.644;37.734;2023-12-20T11:38:15;1.70;;;1.33;;
75408;SDS011;63979;55.644;37.734;2023-12-20T11:43:29;2.78;;;0.77;;
75408;SDS011;63979;55.644;37.734;2023-12-20T11:48:33;1.80;;;1.40;;
75408;SDS011;63979;55.644;37.734;2023-12-20T11:53:35;1.17;;;1.00;;
75408;SDS011;63979;55.644;37.734;2023-12-20T11:58:37;1.77;;;1.02;;
75408;SDS011;63979;55.644;37.734;2023-12-20T12:03:38;1.33;;;0.95;;
75408;SDS011;63979;55.644;37.734;2023-12-20T12:08:39;1.58;;;0.70;;
75408;SDS011;63979;55.644;37.734;2023-12-20T12:13:41;2.28;;;1.33;;
75408;SDS011;63979;55.644;37.734;2023-12-20T12:18:42;1.20;;;0.90;;
75408;SDS011;63979;55.644;37.734;2023-12-20T12:23:43;1.40;;;0.73;;
75408;SDS011;63979;55.644;37.734;2023-12-20T12:28:44;1.85;;;1.10;;
75408;SDS011;63979;55.644;37.734;2023-12-20T12:33:45;2.10;;;0.90;;
75408;SDS011;63979;55.644;37.734;2023-12-20T12:38:46;0.98;;;0.82;;
75408;SDS011;63979;55.644;37.734;2023-12-20T12:43:47;1.20;;;0.85;;
75408;SDS011;63979;55.644;37.734;2023-12-20T12:48:47;0.90;;;0.80;;
75408;SDS011;63979;55.644;37.734;2023-12-20T12:53:50;1.58;;;0.75;;
75408;SDS011;63979;55.644;37.734;2023-12-20T12:58:51;1.02;;;0.70;;
75408;SDS011;63979;55.644;37.734;2023-12-20T13:03:52;1.30;;;0.82;;
75408;SDS011;63979;55.644;37.734;2023-12-20T13:08:52;0.60;;;0.50;;
75408;SDS011;63979;55.644;37.734;2023-12-20T13:13:53;1.63;;;0.90;;
75408;SDS011;63979;55.644;37.734;2023-12-20T13:18:54;1.33;;;0.95;;
75408;SDS011;63979;55.644;37.734;2023-12-20T13:23:55;1.25;;;0.90;;
75408;SDS011;63979;55.644;37.734;2023-12-20T13:28:56;1.35;;;1.02;;
75408;SDS011;63979;55.644;37.734;2023-12-20T13:33:56;0.98;;;0.80;;
75408;SDS011;63979;55.644;37.734;2023-12-20T13:38:57;3.35;;;1.30;;
75408;SDS011;63979;55.644;37.734;2023-12-20T13:43:58;1.48;;;0.98;;
75408;SDS011;63979;55.644;37.734;2023-12-20T13:48:59;1.55;;;1.30;;
75408;SDS011;63979;55.644;37.734;2023-12-20T13:54:00;1.83;;;1.17;;
75408;SDS011;63979;55.644;37.734;2023-12-20T13:59:01;1.77;;;0.93;;
75408;SDS011;63979;55.644;37.734;2023-12-20T14:04:01;1.08;;;0.60;;
75408;SDS011;63979;55.644;37.734;2023-12-20T14:09:02;2.78;;;1.40;;
75408;SDS011;63979;55.644;37.734;2023-12-20T14:14:03;1.70;;;1.10;;
75408;SDS011;63979;55.644;37.734;2023-12-20T14:19:04;0.77;;;0.60;;
75408;SDS011;63979;55.644;37.734;2023-12-20T14:24:07;1.25;;;0.82;;
75408;SDS011;63979;55.644;37.734;2023-12-20T14:29:08;2.67;;;0.88;;
75408;SDS011;63979;55.644;37.734;2023-12-20T14:34:10;2.20;;;0.95;;
75408;SDS011;63979;55.644;37.734;2023-12-20T14:39:11;2.85;;;1.08;;
75408;SDS011;63979;55.644;37.734;2023-12-20T14:44:13;3.13;;;0.80;;
75408;SDS011;63979;55.644;37.734;2023-12-20T14:49:14;0.75;;;0.60;;
75408;SDS011;63979;55.644;37.734;2023-12-20T14:54:14;1.38;;;1.10;;
75408;SDS011;63979;55.644;37.734;2023-12-20T14:59:15;1.50;;;1.13;;
75408;SDS011;63979;55.644;37.734;2023-12-20T15:04:16;1.75;;;0.70;;
75408;SDS011;63979;55.644;37.734;2023-12-20T15:09:17;1.17;;;1.08;;
75408;SDS011;63979;55.644;37.734;2023-12-20T15:14:18;2.15;;;1.13;;
75408;SDS011;63979;55.644;37.734;2023-12-20T15:19:20;3.35;;;1.27;;
75408;SDS011;63979;55.644;37.734;2023-12-20T15:24:21;1.10;;;0.93;;
75408;SDS011;63979;55.644;37.734;2023-12-20T15:29:28;0.82;;;0.82;;
75408;SDS011;63979;55.644;37.734;2023-12-20T15:34:29;1.80;;;1.30;;
75408;SDS011;63979;55.644;37.734;2023-12-20T15:39:30;3.40;;;1.10;;
75408;SDS011;63979;55.644;37.734;2023-12-20T15:44:31;2.05;;;1.20;;
75408;SDS011;63979;55.644;37.734;2023-12-20T15:49:32;3.85;;;1.65;;
75408;SDS011;63979;55.644;37.734;2023-12-20T15:54:33;1.67;;;1.58;;
75408;SDS011;63979;55.644;37.734;2023-12-20T15:59:34;1.42;;;1.33;;
75408;SDS011;63979;55.644;37.734;2023-12-20T16:04:36;1.50;;;1.30;;
75408;SDS011;63979;55.644;37.734;2023-12-20T16:09:37;2.22;;;1.60;;
75408;SDS011;63979;55.644;37.734;2023-12-20T16:14:38;1.67;;;1.17;;
75408;SDS011;63979;55.644;37.734;2023-12-20T16:19:38;1.65;;;1.02;;
75408;SDS011;63979;55.644;37.734;2023-12-20T16:24:39;1.20;;;0.85;;
75408;SDS011;63979;55.644;37.734;2023-12-20T16:29:41;1.48;;;1.08;;
75408;SDS011;63979;55.644;37.734;2023-12-20T16:34:41;2.85;;;1.42;;
75408;SDS011;63979;55.644;37.734;2023-12-20T16:39:43;2.38;;;1.42;;
75408;SDS011;63979;55.644;37.734;2023-12-20T16:44:44;1.45;;;0.95;;
75408;SDS011;63979;55.644;37.734;2023-12-20T16:49:45;1.52;;;1.23;;
75408;SDS011;63979;55.644;37.734;2023-12-20T16:54:46;2.58;;;1.52;;
75408;SDS011;63979;55.644;37.734;2023-12-20T16:59:47;1.52;;;1.10;;
75408;SDS011;63979;55.644;37.734;2023-12-20T17:04:47;1.83;;;1.42;;
75408;SDS011;63979;55.644;37.734;2023-12-20T17:09:50;2.45;;;1.63;;
75408;SDS011;63979;55.644;37.734;2023-12-20T17:14:51;1.40;;;1.13;;
75408;SDS011;63979;55.644;37.734;2023-12-20T17:19:52;2.00;;;1.55;;
75408;SDS011;63979;55.644;37.734;2023-12-20T17:24:53;2.35;;;1.67;;
75408;SDS011;63979;55.644;37.734;2023-12-20T17:29:54;2.28;;;1.35;;
75408;SDS011;63979;55.644;37.734;2023-12-20T17:34:55;0.85;;;0.70;;
75408;SDS011;63979;55.644;37.734;2023-12-20T17:39:56;1.92;;;0.93;;
75408;SDS011;63979;55.644;37.734;2023-12-20T17:44:57;2.97;;;1.75;;
75408;SDS011;63979;55.644;37.734;2023-12-20T17:49:58;1.33;;;0.95;;
75408;SDS011;63979;55.644;37.734;2023-12-20T17:54:58;2.55;;;1.50;;
75408;SDS011;63979;55.644;37.734;2023-12-20T18:00:10;1.25;;;0.93;;
75408;SDS011;63979;55.644;37.734;2023-12-20T18:05:19;1.55;;;0.82;;
75408;SDS011;63979;55.644;37.734;2023-12-20T18:10:20;2.08;;;1.35;;
75408;SDS011;63979;55.644;37.734;2023-12-20T18:15:21;1.88;;;1.27;;
75408;SDS011;63979;55.644;37.734;2023-12-20T18:20:22;3.03;;;1.48;;
75408;SDS011;63979;55.644;37.734;2023-12-20T18:25:23;2.67;;;1.08;;
75408;SDS011;63979;55.644;37.734;2023-12-20T18:30:24;3.83;;;1.95;;
75408;SDS011;63979;55.644;37.734;2023-12-20T18:35:25;4.45;;;1.15;;
75408;SDS011;63979;55.644;37.734;2023-12-20T18:40:26;6.75;;;2.00;;
75408;SDS011;63979;55.644;37.734;2023-12-20T18:45:29;1.00;;;0.90;;
75408;SDS011;63979;55.644;37.734;2023-12-20T18:50:30;4.70;;;1.90;;
75408;SDS011;63979;55.644;37.734;2023-12-20T18:55:31;2.83;;;1.58;;
75408;SDS011;63979;55.644;37.734;2023-12-20T19:00:31;3.30;;;1.77;;
75408;SDS011;63979;55.644;37.734;2023-12-20T19:05:32;2.63;;;1.70;;
75408;SDS011;63979;55.644;37.734;2023-12-20T19:10:33;2.50;;;1.67;;
75408;SDS011;63979;55.644;37.734;2023-12-20T19:15:34;4.57;;;1.58;;
75408;SDS011;63979;55.644;37.734;2023-12-20T19:20:35;4.25;;;1.92;;
75408;SDS011;63979;55.644;37.734;2023-12-20T19:25:36;6.13;;;2.38;;
75408;SDS011;63979;55.644;37.734;2023-12-20T19:30:37;3.03;;;2.22;;
75408;SDS011;63979;55.644;37.734;2023-12-20T19:35:38;4.20;;;2.22;;
75408;SDS011;63979;55.644;37.734;2023-12-20T19:40:39;3.03;;;1.80;;
75408;SDS011;63979;55.644;37.734;2023-12-20T19:45:40;4.10;;;2.38;;
75408;SDS011;63979;55.644;37.734;2023-12-20T19:50:41;5.47;;;2.35;;
75408;SDS011;63979;55.644;37.734;2023-12-20T19:55:42;2.95;;;2.08;;
75408;SDS011;63979;55.644;37.734;2023-12-20T20:00:43;5.85;;;2.28;;
75408;SDS011;63979;55.644;37.734;2023-12-20T20:05:43;5.30;;;2.28;;
75408;SDS011;63979;55.644;37.734;2023-12-20T20:10:44;3.28;;;2.20;;
75408;SDS011;63979;55.644;37.734;2023-12-20T20:15:46;5.05;;;2.22;;
75408;SDS011;63979;55.644;37.734;2023-12-20T20:20:48;5.13;;;2.50;;
75408;SDS011;63979;55.644;37.734;2023-12-20T20:25:48;5.35;;;2.67;;
75408;SDS011;63979;55.644;37.734;2023-12-20T20:30:49;6.07;;;3.38;;
75408;SDS011;63979;55.644;37.734;2023-12-20T20:35:50;6.80;;;4.40;;
75408;SDS011;63979;55.644;37.734;2023-12-20T20:40:51;4.60;;;3.58;;
75408;SDS011;63979;55.644;37.734;2023-12-20T20:45:55;4.07;;;3.13;;
75408;SDS011;63979;55.644;37.734;2023-12-20T20:50:56;5.68;;;2.60;;
75408;SDS011;63979;55.644;37.734;2023-12-20T20:55:58;4.32;;;2.50;;
75408;SDS011;63979;55.644;37.734;2023-12-20T21:00:59;5.35;;;3.22;;
75408;SDS011;63979;55.644;37.734;2023-12-20T21:06:00;5.85;;;3.30;;
75408;SDS011;63979;55.644;37.734;2023-12-20T21:11:01;7.43;;;3.75;;
75408;SDS011;63979;55.644;37.734;2023-12-20T21:16:02;6.35;;;4.70;;
75408;SDS011;63979;55.644;37.734;2023-12-20T21:21:03;8.77;;;4.40;;
75408;SDS011;63979;55.644;37.734;2023-12-20T21:26:04;9.25;;;4.20;;
75408;SDS011;63979;55.644;37.734;2023-12-20T21:31:06;12.15;;;4.57;;
75408;SDS011;63979;55.644;37.734;2023-12-20T21:36:07;13.40;;;6.38;;
75408;SDS011;63979;55.644;37.734;2023-12-20T21:41:08;16.42;;;6.40;;
75408;SDS011;63979;55.644;37.734;2023-12-20T21:46:09;15.00;;;6.07;;
75408;SDS011;63979;55.644;37.734;2023-12-20T21:51:10;12.43;;;5.25;;
75408;SDS011;63979;55.644;37.734;2023-12-20T21:56:11;10.80;;;5.20;;
75408;SDS011;63979;55.644;37.734;2023-12-20T22:01:12;12.98;;;6.18;;
75408;SDS011;63979;55.644;37.734;2023-12-20T22:06:13;10.85;;;4.78;;
75408;SDS011;63979;55.644;37.734;2023-12-20T22:11:14;16.27;;;5.45;;
75408;SDS011;63979;55.644;37.734;2023-12-20T22:16:15;17.08;;;6.57;;
75408;SDS011;63979;55.644;37.734;2023-12-20T22:21:16;15.80;;;6.78;;
75408;SDS011;63979;55.644;37.734;2023-12-20T22:26:17;12.80;;;4.80;;
75408;SDS011;63979;55.644;37.734;2023-12-20T22:31:19;10.13;;;5.05;;
75408;SDS011;63979;55.644;37.734;2023-12-20T22:36:20;9.57;;;4.43;;
75408;SDS011;63979;55.644;37.734;2023-12-20T22:41:21;7.97;;;4.45;;
75408;SDS011;63979;55.644;37.734;2023-12-20T22:46:21;7.45;;;3.95;;
75408;SDS011;63979;55.644;37.734;2023-12-20T22:51:23;4.63;;;2.97;;
75408;SDS011;63979;55.644;37.734;2023-12-20T22:56:25;4.15;;;2.88;;
75408;SDS011;63979;55.644;37.734;2023-12-20T23:01:27;3.35;;;1.95;;
75408;SDS011;63979;55.644;37.734;2023-12-20T23:06:28;3.67;;;2.08;;
75408;SDS011;63979;55.644;37.734;2023-12-20T23:11:28;3.28;;;2.40;;
75408;SDS011;63979;55.644;37.734;2023-12-20T23:16:29;3.08;;;2.00;;
75408;SDS011;63979;55.644;37.734;2023-12-20T23:21:30;2.38;;;1.50;;
75408;SDS011;63979;55.644;37.734;2023-12-20T23:26:31;2.67;;;1.85;;
75408;SDS011;63979;55.644;37.734;2023-12-20T23:31:32;2.30;;;1.27;;
75408;SDS011;63979;55.644;37.734;2023-12-20T23:36:33;3.47;;;1.83;;
75408;SDS011;63979;55.644;37.734;2023-12-20T23:41:34;2.42;;;1.48;;
75408;SDS011;63979;55.644;37.734;2023-12-20T23:46:34;4.40;;;2.40;;
75408;SDS011;63979;55.644;37.734;2023-12-20T23:51:35;2.67;;;1.80;;
75408;SDS011;63979;55.644;37.734;2023-12-20T23:56:36;3.70;;;1.58;;
